Tolar, New Mexico
Current Conditions -  °F | °C
As of 10:56 AM on Monday 26 Jan 2015 (Local Time) from K4MR Reporting Station
Clear Clear  
Wind Chill:   Ceiling: Unl
Heat Index:   Visibility: 10mi
Dew Point:   Wind: 8mph
Humidity: 51%   Direction: 260°W
Pressure: 30.32"   Gusts: NA
Location:  34.3861°N, 104.044°W
Report Text: K4MR 261756Z AUTO 26007KT 10SM CLR 09/00 A3032 RMK AO2 SLP258 T00941003 10094 20013 50007
Loading
Personal Weather Stations






























Interactive Weather Map New forecast layout! Learn more

10-Day Weather Forecast

Advertisements
Track Severe Weather on mobile